Aérodrome :
LOGIN :

S'inscrire | Disclaimer

   EN    FR    IT 

 










Légende :    VFR   VFR Marginal   IFR   IFR Intensif   IFR Très Intensif
Visi : 
Plafond : 
>= 8 km
>= 3000ft
5 à 8 km
1000 à 3000 ft
1500m à 5 km
500 à 1000 ft
800 à 1500m
200 à 500 ft
< 800m
< 200 ft
Symboles :   Orages  Brouillard  Fortes neiges  Fortes précipitations  Vent > 20 kt
SIGMETs :   Divers  Orages  Givrage  Turbulence  Onde Orograph.  Cendres Volcan.






- Altitude de l'aérodrome : 459 ft
- Code IATA : JYV


EFJY - Jyvaskyla

DERNIER METAR :
  • 040920Z AUTO 25010KT 210V280 9999 FEW033 00/M07 Q1005

METARs EXPIRÉS :
  • 040850Z AUTO 25010KT 220V290 9999 BKN029 00/M07 Q1005
  • 040820Z AUTO 24013KT 220V280 9999 FEW028 00/M06 Q1004
  • 040750Z AUTO 26010KT 220V290 9999 FEW023 M00/M06 Q1004
  • 040720Z AUTO 25009KT 210V290 9999 FEW017 M01/M05 Q1003
  • 040650Z AUTO 28009KT 240V310 9999 SCT015 M02/M05 Q1003

TAF TAF EFJY
Valide du 04 à 09h jusqu'au 05 à 09h UTC


040826Z 0409/0509 25014KT 9999 FEW030
TEMPO 0411/0418 4000 -SHSN SCT040CB
PROB30
TEMPO 0413/0416 1500 SHSN



MET'MAP, la Météo Aéronautique d'un coup d'oeil ! - Copyright ORBIFLY Décembre 2007 - Disclaimer

ORBIFLY MET'MAP TEAM :

Programmation & Développement : Alexandra Zaïnal
Sur une idée originale de : Baudouin d'Aumeries
Assistance à la programmation : Marc-Olivier Méhu
Soutien technique & logistique : Manuel Goepfert

Contact : metmap@orbifly.com




SOURCES & CREDITS :

   NOAA